sensor_id;sensor_type;location;lat;lon;timestamp;P1;durP1;ratioP1;P2;durP2;ratioP2
15285;SDS011;7744;52.172;10.668;2023-08-20T00:00:28;11.50;;;10.48;;
15285;SDS011;7744;52.172;10.668;2023-08-20T00:03:03;12.25;;;11.10;;
15285;SDS011;7744;52.172;10.668;2023-08-20T00:05:36;13.18;;;11.93;;
15285;SDS011;7744;52.172;10.668;2023-08-20T00:08:02;12.77;;;11.48;;
15285;SDS011;7744;52.172;10.668;2023-08-20T00:10:29;13.07;;;11.77;;
15285;SDS011;7744;52.172;10.668;2023-08-20T00:12:55;13.30;;;11.98;;
15285;SDS011;7744;52.172;10.668;2023-08-20T00:15:21;13.93;;;12.63;;
15285;SDS011;7744;52.172;10.668;2023-08-20T00:17:51;13.13;;;11.93;;
15285;SDS011;7744;52.172;10.668;2023-08-20T00:20:17;12.68;;;11.50;;
15285;SDS011;7744;52.172;10.668;2023-08-20T00:22:43;12.88;;;11.73;;
15285;SDS011;7744;52.172;10.668;2023-08-20T00:25:10;16.23;;;14.63;;
15285;SDS011;7744;52.172;10.668;2023-08-20T00:27:37;16.17;;;14.35;;
15285;SDS011;7744;52.172;10.668;2023-08-20T00:30:03;15.73;;;14.20;;
15285;SDS011;7744;52.172;10.668;2023-08-20T00:32:29;15.85;;;14.23;;
15285;SDS011;7744;52.172;10.668;2023-08-20T00:34:55;16.38;;;14.88;;
15285;SDS011;7744;52.172;10.668;2023-08-20T00:37:21;15.32;;;13.82;;
15285;SDS011;7744;52.172;10.668;2023-08-20T00:39:46;14.90;;;13.43;;
15285;SDS011;7744;52.172;10.668;2023-08-20T00:42:12;14.02;;;12.88;;
15285;SDS011;7744;52.172;10.668;2023-08-20T00:44:41;15.23;;;13.73;;
15285;SDS011;7744;52.172;10.668;2023-08-20T00:47:09;15.82;;;14.45;;
15285;SDS011;7744;52.172;10.668;2023-08-20T00:49:35;15.73;;;14.13;;
15285;SDS011;7744;52.172;10.668;2023-08-20T00:52:01;15.63;;;14.32;;
15285;SDS011;7744;52.172;10.668;2023-08-20T00:54:28;17.02;;;15.43;;
15285;SDS011;7744;52.172;10.668;2023-08-20T00:56:54;16.70;;;15.07;;
15285;SDS011;7744;52.172;10.668;2023-08-20T00:59:20;17.92;;;16.33;;
15285;SDS011;7744;52.172;10.668;2023-08-20T01:01:46;17.45;;;15.50;;
15285;SDS011;7744;52.172;10.668;2023-08-20T01:04:11;16.70;;;15.00;;
15285;SDS011;7744;52.172;10.668;2023-08-20T01:09:50;17.95;;;16.35;;
15285;SDS011;7744;52.172;10.668;2023-08-20T01:12:10;16.13;;;14.73;;
15285;SDS011;7744;52.172;10.668;2023-08-20T01:14:38;16.83;;;15.23;;
15285;SDS011;7744;52.172;10.668;2023-08-20T01:17:04;17.40;;;15.80;;
15285;SDS011;7744;52.172;10.668;2023-08-20T01:19:30;17.63;;;15.85;;
15285;SDS011;7744;52.172;10.668;2023-08-20T01:24:44;17.38;;;15.77;;
15285;SDS011;7744;52.172;10.668;2023-08-20T01:27:42;17.13;;;15.52;;
15285;SDS011;7744;52.172;10.668;2023-08-20T01:30:24;19.90;;;18.02;;
15285;SDS011;7744;52.172;10.668;2023-08-20T01:32:52;20.77;;;18.77;;
15285;SDS011;7744;52.172;10.668;2023-08-20T01:35:19;20.40;;;18.42;;
15285;SDS011;7744;52.172;10.668;2023-08-20T01:37:45;17.70;;;16.00;;
15285;SDS011;7744;52.172;10.668;2023-08-20T01:40:11;18.15;;;16.45;;
15285;SDS011;7744;52.172;10.668;2023-08-20T01:42:37;20.83;;;18.73;;
15285;SDS011;7744;52.172;10.668;2023-08-20T01:45:03;19.08;;;17.38;;
15285;SDS011;7744;52.172;10.668;2023-08-20T01:47:30;20.88;;;19.00;;
15285;SDS011;7744;52.172;10.668;2023-08-20T01:49:56;20.73;;;18.75;;
15285;SDS011;7744;52.172;10.668;2023-08-20T01:52:22;20.40;;;18.50;;
15285;SDS011;7744;52.172;10.668;2023-08-20T01:54:48;18.67;;;16.83;;
15285;SDS011;7744;52.172;10.668;2023-08-20T01:57:14;19.15;;;17.45;;
15285;SDS011;7744;52.172;10.668;2023-08-20T01:59:39;18.67;;;16.98;;
15285;SDS011;7744;52.172;10.668;2023-08-20T02:02:05;19.52;;;17.73;;
15285;SDS011;7744;52.172;10.668;2023-08-20T02:04:31;22.88;;;20.60;;
15285;SDS011;7744;52.172;10.668;2023-08-20T02:06:57;21.65;;;19.38;;
15285;SDS011;7744;52.172;10.668;2023-08-20T02:09:23;20.67;;;18.58;;
15285;SDS011;7744;52.172;10.668;2023-08-20T02:11:49;24.67;;;22.10;;
15285;SDS011;7744;52.172;10.668;2023-08-20T02:14:18;21.83;;;19.67;;
15285;SDS011;7744;52.172;10.668;2023-08-20T02:16:43;22.85;;;20.58;;
15285;SDS011;7744;52.172;10.668;2023-08-20T02:19:11;20.70;;;18.67;;
15285;SDS011;7744;52.172;10.668;2023-08-20T02:21:36;20.67;;;18.58;;
15285;SDS011;7744;52.172;10.668;2023-08-20T02:24:03;19.90;;;17.90;;
15285;SDS011;7744;52.172;10.668;2023-08-20T02:26:28;19.17;;;17.40;;
15285;SDS011;7744;52.172;10.668;2023-08-20T02:28:54;20.40;;;18.60;;
15285;SDS011;7744;52.172;10.668;2023-08-20T02:31:20;17.35;;;15.75;;
15285;SDS011;7744;52.172;10.668;2023-08-20T02:33:45;19.83;;;18.00;;
15285;SDS011;7744;52.172;10.668;2023-08-20T02:36:12;20.70;;;18.65;;
15285;SDS011;7744;52.172;10.668;2023-08-20T02:38:37;21.02;;;18.85;;
15285;SDS011;7744;52.172;10.668;2023-08-20T02:41:03;23.23;;;21.00;;
15285;SDS011;7744;52.172;10.668;2023-08-20T02:43:29;19.08;;;17.17;;
15285;SDS011;7744;52.172;10.668;2023-08-20T02:45:54;19.42;;;17.38;;
15285;SDS011;7744;52.172;10.668;2023-08-20T02:48:20;21.17;;;19.00;;
15285;SDS011;7744;52.172;10.668;2023-08-20T02:50:46;20.35;;;18.35;;
15285;SDS011;7744;52.172;10.668;2023-08-20T02:53:11;20.13;;;18.23;;
15285;SDS011;7744;52.172;10.668;2023-08-20T02:55:37;18.65;;;16.98;;
15285;SDS011;7744;52.172;10.668;2023-08-20T02:58:03;20.30;;;18.30;;
15285;SDS011;7744;52.172;10.668;2023-08-20T03:00:29;19.13;;;17.30;;
15285;SDS011;7744;52.172;10.668;2023-08-20T03:02:55;18.98;;;17.10;;
15285;SDS011;7744;52.172;10.668;2023-08-20T03:05:21;19.40;;;17.52;;
15285;SDS011;7744;52.172;10.668;2023-08-20T03:07:47;18.30;;;16.55;;
15285;SDS011;7744;52.172;10.668;2023-08-20T03:10:13;20.20;;;18.23;;
15285;SDS011;7744;52.172;10.668;2023-08-20T03:12:38;18.65;;;16.98;;
15285;SDS011;7744;52.172;10.668;2023-08-20T03:15:04;17.65;;;15.95;;
15285;SDS011;7744;52.172;10.668;2023-08-20T03:17:30;18.20;;;16.50;;
15285;SDS011;7744;52.172;10.668;2023-08-20T03:19:56;18.35;;;16.65;;
15285;SDS011;7744;52.172;10.668;2023-08-20T03:22:23;17.00;;;15.40;;
15285;SDS011;7744;52.172;10.668;2023-08-20T03:24:50;18.13;;;16.42;;
15285;SDS011;7744;52.172;10.668;2023-08-20T03:27:16;18.10;;;16.40;;
15285;SDS011;7744;52.172;10.668;2023-08-20T03:29:42;20.65;;;18.45;;
15285;SDS011;7744;52.172;10.668;2023-08-20T03:32:08;19.92;;;17.98;;
15285;SDS011;7744;52.172;10.668;2023-08-20T03:34:34;21.05;;;19.05;;
15285;SDS011;7744;52.172;10.668;2023-08-20T03:37:00;20.80;;;18.90;;
15285;SDS011;7744;52.172;10.668;2023-08-20T03:39:26;20.88;;;18.98;;
15285;SDS011;7744;52.172;10.668;2023-08-20T03:41:52;22.13;;;19.92;;
15285;SDS011;7744;52.172;10.668;2023-08-20T03:44:17;21.08;;;19.02;;
15285;SDS011;7744;52.172;10.668;2023-08-20T03:46:43;19.40;;;17.60;;
15285;SDS011;7744;52.172;10.668;2023-08-20T03:49:09;19.42;;;17.58;;
15285;SDS011;7744;52.172;10.668;2023-08-20T03:51:35;20.60;;;18.58;;
15285;SDS011;7744;52.172;10.668;2023-08-20T03:54:00;19.50;;;17.50;;
15285;SDS011;7744;52.172;10.668;2023-08-20T03:56:26;19.10;;;17.23;;
15285;SDS011;7744;52.172;10.668;2023-08-20T03:58:52;19.63;;;17.77;;
15285;SDS011;7744;52.172;10.668;2023-08-20T04:01:18;18.42;;;16.67;;
15285;SDS011;7744;52.172;10.668;2023-08-20T04:03:45;22.45;;;20.17;;
15285;SDS011;7744;52.172;10.668;2023-08-20T04:06:11;20.27;;;18.27;;
15285;SDS011;7744;52.172;10.668;2023-08-20T04:08:36;21.00;;;19.00;;
15285;SDS011;7744;52.172;10.668;2023-08-20T04:11:02;21.52;;;19.52;;
15285;SDS011;7744;52.172;10.668;2023-08-20T04:13:28;19.42;;;17.23;;
15285;SDS011;7744;52.172;10.668;2023-08-20T04:15:54;20.52;;;18.52;;
15285;SDS011;7744;52.172;10.668;2023-08-20T04:18:20;19.17;;;17.38;;
15285;SDS011;7744;52.172;10.668;2023-08-20T04:20:47;21.40;;;19.33;;
15285;SDS011;7744;52.172;10.668;2023-08-20T04:23:12;20.60;;;18.63;;
15285;SDS011;7744;52.172;10.668;2023-08-20T04:25:38;19.55;;;17.45;;
15285;SDS011;7744;52.172;10.668;2023-08-20T04:28:05;19.15;;;17.42;;
15285;SDS011;7744;52.172;10.668;2023-08-20T04:30:30;20.70;;;18.70;;
15285;SDS011;7744;52.172;10.668;2023-08-20T04:32:56;17.95;;;16.25;;
15285;SDS011;7744;52.172;10.668;2023-08-20T04:35:22;20.00;;;18.05;;
15285;SDS011;7744;52.172;10.668;2023-08-20T04:37:47;20.15;;;18.13;;
15285;SDS011;7744;52.172;10.668;2023-08-20T04:40:13;18.65;;;16.88;;
15285;SDS011;7744;52.172;10.668;2023-08-20T04:42:38;18.30;;;16.70;;
15285;SDS011;7744;52.172;10.668;2023-08-20T04:45:04;18.48;;;16.77;;
15285;SDS011;7744;52.172;10.668;2023-08-20T04:47:31;18.88;;;17.05;;
15285;SDS011;7744;52.172;10.668;2023-08-20T04:49:56;18.58;;;16.75;;
15285;SDS011;7744;52.172;10.668;2023-08-20T04:52:22;17.45;;;15.65;;
15285;SDS011;7744;52.172;10.668;2023-08-20T04:54:47;19.35;;;16.52;;
15285;SDS011;7744;52.172;10.668;2023-08-20T04:57:13;19.00;;;17.20;;
15285;SDS011;7744;52.172;10.668;2023-08-20T04:59:38;18.98;;;17.20;;
15285;SDS011;7744;52.172;10.668;2023-08-20T05:02:04;19.02;;;17.23;;
15285;SDS011;7744;52.172;10.668;2023-08-20T05:04:30;18.70;;;16.80;;
15285;SDS011;7744;52.172;10.668;2023-08-20T05:06:55;19.15;;;17.35;;
15285;SDS011;7744;52.172;10.668;2023-08-20T05:09:21;18.17;;;16.42;;
15285;SDS011;7744;52.172;10.668;2023-08-20T05:11:47;19.02;;;17.27;;
15285;SDS011;7744;52.172;10.668;2023-08-20T05:14:12;19.45;;;16.90;;
15285;SDS011;7744;52.172;10.668;2023-08-20T05:16:38;18.45;;;16.52;;
15285;SDS011;7744;52.172;10.668;2023-08-20T05:19:03;17.45;;;15.63;;
15285;SDS011;7744;52.172;10.668;2023-08-20T05:21:29;17.45;;;15.82;;
15285;SDS011;7744;52.172;10.668;2023-08-20T05:23:54;18.23;;;16.13;;
15285;SDS011;7744;52.172;10.668;2023-08-20T05:26:21;16.92;;;15.07;;
15285;SDS011;7744;52.172;10.668;2023-08-20T05:28:47;19.27;;;17.38;;
15285;SDS011;7744;52.172;10.668;2023-08-20T05:31:13;18.23;;;16.20;;
15285;SDS011;7744;52.172;10.668;2023-08-20T05:33:38;17.38;;;15.77;;
15285;SDS011;7744;52.172;10.668;2023-08-20T05:36:04;17.52;;;15.82;;
15285;SDS011;7744;52.172;10.668;2023-08-20T05:38:30;15.82;;;14.32;;
15285;SDS011;7744;52.172;10.668;2023-08-20T05:40:55;16.23;;;14.63;;
15285;SDS011;7744;52.172;10.668;2023-08-20T05:43:21;17.33;;;15.52;;
15285;SDS011;7744;52.172;10.668;2023-08-20T05:45:47;16.60;;;15.02;;
15285;SDS011;7744;52.172;10.668;2023-08-20T05:48:12;15.90;;;14.27;;
15285;SDS011;7744;52.172;10.668;2023-08-20T05:50:38;17.60;;;15.90;;
15285;SDS011;7744;52.172;10.668;2023-08-20T05:53:03;16.63;;;15.02;;
15285;SDS011;7744;52.172;10.668;2023-08-20T05:55:29;15.35;;;13.90;;
15285;SDS011;7744;52.172;10.668;2023-08-20T05:57:55;15.00;;;13.60;;
15285;SDS011;7744;52.172;10.668;2023-08-20T06:00:21;14.57;;;13.10;;
15285;SDS011;7744;52.172;10.668;2023-08-20T06:02:47;16.75;;;15.15;;
15285;SDS011;7744;52.172;10.668;2023-08-20T06:05:12;13.70;;;12.40;;
15285;SDS011;7744;52.172;10.668;2023-08-20T06:07:38;16.48;;;14.40;;
15285;SDS011;7744;52.172;10.668;2023-08-20T06:10:05;16.08;;;14.48;;
15285;SDS011;7744;52.172;10.668;2023-08-20T06:12:31;15.88;;;14.30;;
15285;SDS011;7744;52.172;10.668;2023-08-20T06:14:57;14.85;;;13.35;;
15285;SDS011;7744;52.172;10.668;2023-08-20T06:17:23;13.75;;;12.45;;
15285;SDS011;7744;52.172;10.668;2023-08-20T06:19:48;13.40;;;12.00;;
15285;SDS011;7744;52.172;10.668;2023-08-20T06:22:14;14.32;;;13.00;;
15285;SDS011;7744;52.172;10.668;2023-08-20T06:24:40;12.13;;;10.93;;
15285;SDS011;7744;52.172;10.668;2023-08-20T06:27:05;11.98;;;10.77;;
15285;SDS011;7744;52.172;10.668;2023-08-20T06:29:31;12.68;;;11.48;;
15285;SDS011;7744;52.172;10.668;2023-08-20T06:31:56;12.23;;;11.07;;
15285;SDS011;7744;52.172;10.668;2023-08-20T06:34:22;11.13;;;10.02;;
15285;SDS011;7744;52.172;10.668;2023-08-20T06:36:48;10.98;;;9.88;;
15285;SDS011;7744;52.172;10.668;2023-08-20T06:39:14;9.02;;;8.15;;
15285;SDS011;7744;52.172;10.668;2023-08-20T06:41:40;8.98;;;8.07;;
15285;SDS011;7744;52.172;10.668;2023-08-20T06:44:06;7.32;;;6.63;;
15285;SDS011;7744;52.172;10.668;2023-08-20T06:46:32;8.35;;;6.30;;
15285;SDS011;7744;52.172;10.668;2023-08-20T06:48:58;7.75;;;7.05;;
15285;SDS011;7744;52.172;10.668;2023-08-20T06:51:23;6.93;;;6.32;;
15285;SDS011;7744;52.172;10.668;2023-08-20T06:53:50;8.30;;;7.47;;
15285;SDS011;7744;52.172;10.668;2023-08-20T06:56:16;7.78;;;6.97;;
15285;SDS011;7744;52.172;10.668;2023-08-20T06:58:42;7.68;;;6.88;;
15285;SDS011;7744;52.172;10.668;2023-08-20T07:01:08;7.95;;;7.00;;
15285;SDS011;7744;52.172;10.668;2023-08-20T07:06:03;7.03;;;6.32;;
15285;SDS011;7744;52.172;10.668;2023-08-20T07:08:29;6.30;;;5.72;;
15285;SDS011;7744;52.172;10.668;2023-08-20T07:10:54;5.85;;;5.25;;
15285;SDS011;7744;52.172;10.668;2023-08-20T07:13:20;5.25;;;4.68;;
15285;SDS011;7744;52.172;10.668;2023-08-20T07:15:46;5.93;;;5.10;;
15285;SDS011;7744;52.172;10.668;2023-08-20T07:18:12;6.07;;;5.45;;
15285;SDS011;7744;52.172;10.668;2023-08-20T07:20:40;5.40;;;4.90;;
15285;SDS011;7744;52.172;10.668;2023-08-20T07:23:09;5.55;;;4.80;;
15285;SDS011;7744;52.172;10.668;2023-08-20T07:25:36;5.00;;;4.20;;
15285;SDS011;7744;52.172;10.668;2023-08-20T07:28:03;5.43;;;4.70;;
15285;SDS011;7744;52.172;10.668;2023-08-20T07:30:33;4.90;;;4.45;;
15285;SDS011;7744;52.172;10.668;2023-08-20T07:32:59;5.70;;;4.60;;
15285;SDS011;7744;52.172;10.668;2023-08-20T07:35:24;3.97;;;3.58;;
15285;SDS011;7744;52.172;10.668;2023-08-20T07:37:50;5.18;;;4.25;;
15285;SDS011;7744;52.172;10.668;2023-08-20T07:42:44;4.65;;;4.00;;
15285;SDS011;7744;52.172;10.668;2023-08-20T07:45:09;6.32;;;4.55;;
15285;SDS011;7744;52.172;10.668;2023-08-20T07:47:36;5.38;;;4.40;;
15285;SDS011;7744;52.172;10.668;2023-08-20T07:50:02;5.93;;;4.40;;
15285;SDS011;7744;52.172;10.668;2023-08-20T07:52:29;4.78;;;4.22;;
15285;SDS011;7744;52.172;10.668;2023-08-20T07:54:55;3.92;;;3.63;;
15285;SDS011;7744;52.172;10.668;2023-08-20T07:57:21;4.95;;;3.75;;
15285;SDS011;7744;52.172;10.668;2023-08-20T07:59:48;4.70;;;3.40;;
15285;SDS011;7744;52.172;10.668;2023-08-20T08:02:17;4.07;;;3.65;;
15285;SDS011;7744;52.172;10.668;2023-08-20T08:04:44;5.90;;;4.03;;
15285;SDS011;7744;52.172;10.668;2023-08-20T08:07:10;4.88;;;3.92;;
15285;SDS011;7744;52.172;10.668;2023-08-20T08:09:36;4.15;;;3.60;;
15285;SDS011;7744;52.172;10.668;2023-08-20T08:12:02;3.25;;;2.80;;
15285;SDS011;7744;52.172;10.668;2023-08-20T08:14:28;6.90;;;3.70;;
15285;SDS011;7744;52.172;10.668;2023-08-20T08:16:54;3.30;;;3.00;;
15285;SDS011;7744;52.172;10.668;2023-08-20T08:19:19;4.65;;;3.33;;
15285;SDS011;7744;52.172;10.668;2023-08-20T08:21:45;4.95;;;4.07;;
15285;SDS011;7744;52.172;10.668;2023-08-20T08:24:12;4.25;;;3.58;;
15285;SDS011;7744;52.172;10.668;2023-08-20T08:26:39;3.60;;;3.30;;
15285;SDS011;7744;52.172;10.668;2023-08-20T08:29:05;4.25;;;3.15;;
15285;SDS011;7744;52.172;10.668;2023-08-20T08:31:32;3.80;;;2.90;;
15285;SDS011;7744;52.172;10.668;2023-08-20T08:33:59;3.53;;;2.92;;
15285;SDS011;7744;52.172;10.668;2023-08-20T08:36:25;4.20;;;2.58;;
15285;SDS011;7744;52.172;10.668;2023-08-20T08:38:51;4.22;;;2.58;;
15285;SDS011;7744;52.172;10.668;2023-08-20T08:41:17;5.63;;;2.97;;
15285;SDS011;7744;52.172;10.668;2023-08-20T08:43:47;4.88;;;2.85;;
15285;SDS011;7744;52.172;10.668;2023-08-20T08:46:14;2.88;;;2.67;;
15285;SDS011;7744;52.172;10.668;2023-08-20T08:48:42;5.55;;;2.78;;
15285;SDS011;7744;52.172;10.668;2023-08-20T08:51:09;3.67;;;3.28;;
15285;SDS011;7744;52.172;10.668;2023-08-20T08:53:36;2.80;;;2.50;;
15285;SDS011;7744;52.172;10.668;2023-08-20T08:56:02;2.60;;;2.40;;
15285;SDS011;7744;52.172;10.668;2023-08-20T08:58:32;4.90;;;2.83;;
15285;SDS011;7744;52.172;10.668;2023-08-20T09:00:58;3.45;;;2.80;;
15285;SDS011;7744;52.172;10.668;2023-08-20T09:03:24;3.30;;;3.00;;
15285;SDS011;7744;52.172;10.668;2023-08-20T09:05:57;5.32;;;2.72;;
15285;SDS011;7744;52.172;10.668;2023-08-20T09:08:29;3.67;;;2.72;;
15285;SDS011;7744;52.172;10.668;2023-08-20T09:10:56;3.55;;;2.50;;
15285;SDS011;7744;52.172;10.668;2023-08-20T09:13:23;4.93;;;2.80;;
15285;SDS011;7744;52.172;10.668;2023-08-20T09:15:51;4.65;;;3.08;;
15285;SDS011;7744;52.172;10.668;2023-08-20T09:18:18;2.70;;;2.47;;
15285;SDS011;7744;52.172;10.668;2023-08-20T09:20:43;4.65;;;2.95;;
15285;SDS011;7744;52.172;10.668;2023-08-20T09:23:10;2.85;;;2.58;;
15285;SDS011;7744;52.172;10.668;2023-08-20T09:25:38;2.75;;;2.25;;
15285;SDS011;7744;52.172;10.668;2023-08-20T09:28:04;2.97;;;2.47;;
15285;SDS011;7744;52.172;10.668;2023-08-20T09:30:29;5.20;;;2.50;;
15285;SDS011;7744;52.172;10.668;2023-08-20T09:33:06;3.05;;;2.75;;
15285;SDS011;7744;52.172;10.668;2023-08-20T09:35:34;4.18;;;2.53;;
15285;SDS011;7744;52.172;10.668;2023-08-20T09:37:59;3.63;;;2.70;;
15285;SDS011;7744;52.172;10.668;2023-08-20T09:40:26;3.10;;;2.60;;
15285;SDS011;7744;52.172;10.668;2023-08-20T09:42:55;3.58;;;2.20;;
15285;SDS011;7744;52.172;10.668;2023-08-20T09:45:21;3.00;;;2.25;;
15285;SDS011;7744;52.172;10.668;2023-08-20T09:47:54;2.90;;;2.58;;
15285;SDS011;7744;52.172;10.668;2023-08-20T09:50:21;4.05;;;2.30;;
15285;SDS011;7744;52.172;10.668;2023-08-20T09:52:53;3.13;;;2.70;;
15285;SDS011;7744;52.172;10.668;2023-08-20T09:55:29;2.30;;;2.10;;
15285;SDS011;7744;52.172;10.668;2023-08-20T09:57:59;4.35;;;2.40;;
15285;SDS011;7744;52.172;10.668;2023-08-20T10:00:26;4.15;;;2.20;;
15285;SDS011;7744;52.172;10.668;2023-08-20T10:02:53;2.65;;;2.10;;
15285;SDS011;7744;52.172;10.668;2023-08-20T10:05:20;5.00;;;2.50;;
15285;SDS011;7744;52.172;10.668;2023-08-20T10:07:50;2.25;;;2.05;;
15285;SDS011;7744;52.172;10.668;2023-08-20T10:10:17;2.47;;;2.28;;
15285;SDS011;7744;52.172;10.668;2023-08-20T10:12:43;3.65;;;2.20;;
15285;SDS011;7744;52.172;10.668;2023-08-20T10:15:12;3.15;;;2.13;;
15285;SDS011;7744;52.172;10.668;2023-08-20T10:17:41;2.47;;;2.28;;
15285;SDS011;7744;52.172;10.668;2023-08-20T10:20:07;4.28;;;2.50;;
15285;SDS011;7744;52.172;10.668;2023-08-20T10:22:39;2.33;;;2.13;;
15285;SDS011;7744;52.172;10.668;2023-08-20T10:27:53;4.10;;;2.28;;
15285;SDS011;7744;52.172;10.668;2023-08-20T10:30:24;2.90;;;2.60;;
15285;SDS011;7744;52.172;10.668;2023-08-20T10:32:54;2.83;;;2.20;;
15285;SDS011;7744;52.172;10.668;2023-08-20T10:35:28;3.13;;;2.80;;
15285;SDS011;7744;52.172;10.668;2023-08-20T10:38:12;3.08;;;2.28;;
15285;SDS011;7744;52.172;10.668;2023-08-20T10:40:55;3.50;;;2.58;;
15285;SDS011;7744;52.172;10.668;2023-08-20T10:46:01;3.45;;;2.45;;
15285;SDS011;7744;52.172;10.668;2023-08-20T10:48:39;3.55;;;2.30;;
15285;SDS011;7744;52.172;10.668;2023-08-20T10:51:06;4.25;;;2.42;;
15285;SDS011;7744;52.172;10.668;2023-08-20T10:53:33;3.67;;;2.20;;
15285;SDS011;7744;52.172;10.668;2023-08-20T10:59:09;2.92;;;2.42;;
15285;SDS011;7744;52.172;10.668;2023-08-20T11:01:38;3.65;;;2.08;;
15285;SDS011;7744;52.172;10.668;2023-08-20T11:04:05;4.68;;;2.30;;
15285;SDS011;7744;52.172;10.668;2023-08-20T11:06:47;3.53;;;2.50;;
15285;SDS011;7744;52.172;10.668;2023-08-20T11:09:30;4.28;;;2.20;;
15285;SDS011;7744;52.172;10.668;2023-08-20T11:11:56;5.40;;;2.80;;
15285;SDS011;7744;52.172;10.668;2023-08-20T11:14:23;26.23;;;4.68;;
15285;SDS011;7744;52.172;10.668;2023-08-20T11:17:13;4.03;;;2.40;;
15285;SDS011;7744;52.172;10.668;2023-08-20T11:19:39;3.65;;;2.60;;
15285;SDS011;7744;52.172;10.668;2023-08-20T11:22:11;3.15;;;2.35;;
15285;SDS011;7744;52.172;10.668;2023-08-20T11:24:41;16.33;;;3.25;;
15285;SDS011;7744;52.172;10.668;2023-08-20T11:27:07;2.97;;;2.78;;
15285;SDS011;7744;52.172;10.668;2023-08-20T11:29:33;4.50;;;2.50;;
15285;SDS011;7744;52.172;10.668;2023-08-20T11:31:59;18.50;;;3.78;;
15285;SDS011;7744;52.172;10.668;2023-08-20T11:34:28;3.45;;;2.50;;
15285;SDS011;7744;52.172;10.668;2023-08-20T11:36:55;3.88;;;2.45;;
15285;SDS011;7744;52.172;10.668;2023-08-20T11:39:21;3.78;;;2.63;;
15285;SDS011;7744;52.172;10.668;2023-08-20T11:41:47;3.53;;;2.70;;
15285;SDS011;7744;52.172;10.668;2023-08-20T11:44:21;4.32;;;2.63;;
15285;SDS011;7744;52.172;10.668;2023-08-20T11:46:51;8.75;;;2.92;;
15285;SDS011;7744;52.172;10.668;2023-08-20T11:49:17;20.10;;;3.65;;
15285;SDS011;7744;52.172;10.668;2023-08-20T11:51:52;24.77;;;4.28;;
15285;SDS011;7744;52.172;10.668;2023-08-20T11:54:20;4.32;;;3.20;;
15285;SDS011;7744;52.172;10.668;2023-08-20T11:56:47;4.30;;;3.08;;
15285;SDS011;7744;52.172;10.668;2023-08-20T11:59:15;3.92;;;2.97;;
15285;SDS011;7744;52.172;10.668;2023-08-20T12:01:42;3.45;;;3.15;;
15285;SDS011;7744;52.172;10.668;2023-08-20T12:04:08;3.50;;;2.97;;
15285;SDS011;7744;52.172;10.668;2023-08-20T12:06:35;3.08;;;2.58;;
15285;SDS011;7744;52.172;10.668;2023-08-20T12:09:07;9.30;;;2.97;;
15285;SDS011;7744;52.172;10.668;2023-08-20T12:11:48;5.18;;;3.08;;
15285;SDS011;7744;52.172;10.668;2023-08-20T12:14:15;3.13;;;2.72;;
15285;SDS011;7744;52.172;10.668;2023-08-20T12:16:41;3.67;;;3.05;;
15285;SDS011;7744;52.172;10.668;2023-08-20T12:19:07;11.65;;;3.33;;
15285;SDS011;7744;52.172;10.668;2023-08-20T12:21:34;15.88;;;3.83;;
15285;SDS011;7744;52.172;10.668;2023-08-20T12:24:00;3.08;;;2.60;;
15285;SDS011;7744;52.172;10.668;2023-08-20T12:26:25;3.13;;;2.83;;
15285;SDS011;7744;52.172;10.668;2023-08-20T12:28:51;3.53;;;2.50;;
15285;SDS011;7744;52.172;10.668;2023-08-20T12:31:17;3.90;;;2.80;;
15285;SDS011;7744;52.172;10.668;2023-08-20T12:33:42;3.10;;;2.80;;
15285;SDS011;7744;52.172;10.668;2023-08-20T12:36:08;3.53;;;2.63;;
15285;SDS011;7744;52.172;10.668;2023-08-20T12:38:37;3.50;;;2.70;;
15285;SDS011;7744;52.172;10.668;2023-08-20T12:41:02;3.40;;;2.90;;
15285;SDS011;7744;52.172;10.668;2023-08-20T12:43:30;3.97;;;3.22;;
15285;SDS011;7744;52.172;10.668;2023-08-20T12:45:59;4.25;;;2.80;;
15285;SDS011;7744;52.172;10.668;2023-08-20T12:48:24;3.80;;;2.92;;
15285;SDS011;7744;52.172;10.668;2023-08-20T12:50:50;3.28;;;2.65;;
15285;SDS011;7744;52.172;10.668;2023-08-20T12:53:16;4.15;;;2.78;;
15285;SDS011;7744;52.172;10.668;2023-08-20T12:55:41;3.92;;;2.95;;
15285;SDS011;7744;52.172;10.668;2023-08-20T12:58:07;3.67;;;2.67;;
15285;SDS011;7744;52.172;10.668;2023-08-20T13:00:34;5.03;;;3.08;;
15285;SDS011;7744;52.172;10.668;2023-08-20T13:03:00;43.95;;;6.22;;
15285;SDS011;7744;52.172;10.668;2023-08-20T13:05:26;5.82;;;3.17;;
15285;SDS011;7744;52.172;10.668;2023-08-20T13:07:52;6.75;;;3.28;;
15285;SDS011;7744;52.172;10.668;2023-08-20T13:10:19;3.85;;;3.00;;
15285;SDS011;7744;52.172;10.668;2023-08-20T13:12:47;4.40;;;3.00;;
15285;SDS011;7744;52.172;10.668;2023-08-20T13:15:17;8.68;;;3.25;;
15285;SDS011;7744;52.172;10.668;2023-08-20T13:17:44;3.13;;;2.83;;
15285;SDS011;7744;52.172;10.668;2023-08-20T13:20:11;3.55;;;3.25;;
15285;SDS011;7744;52.172;10.668;2023-08-20T13:22:37;5.63;;;3.13;;
15285;SDS011;7744;52.172;10.668;2023-08-20T13:27:32;3.40;;;2.78;;
15285;SDS011;7744;52.172;10.668;2023-08-20T13:29:58;3.50;;;2.78;;
15285;SDS011;7744;52.172;10.668;2023-08-20T13:32:23;3.08;;;2.83;;
15285;SDS011;7744;52.172;10.668;2023-08-20T13:34:49;3.08;;;2.78;;
15285;SDS011;7744;52.172;10.668;2023-08-20T13:37:16;3.50;;;3.20;;
15285;SDS011;7744;52.172;10.668;2023-08-20T13:39:42;4.85;;;3.10;;
15285;SDS011;7744;52.172;10.668;2023-08-20T13:42:08;5.50;;;3.00;;
15285;SDS011;7744;52.172;10.668;2023-08-20T13:44:33;3.80;;;3.20;;
15285;SDS011;7744;52.172;10.668;2023-08-20T13:46:59;3.47;;;2.88;;
15285;SDS011;7744;52.172;10.668;2023-08-20T13:49:25;3.05;;;2.75;;
15285;SDS011;7744;52.172;10.668;2023-08-20T13:51:50;23.85;;;4.40;;
15285;SDS011;7744;52.172;10.668;2023-08-20T13:54:16;13.00;;;4.20;;
15285;SDS011;7744;52.172;10.668;2023-08-20T13:56:42;3.55;;;3.25;;
15285;SDS011;7744;52.172;10.668;2023-08-20T13:59:10;11.32;;;6.60;;
15285;SDS011;7744;52.172;10.668;2023-08-20T14:01:36;6.88;;;4.25;;
15285;SDS011;7744;52.172;10.668;2023-08-20T14:04:02;9.52;;;7.50;;
15285;SDS011;7744;52.172;10.668;2023-08-20T14:06:28;8.63;;;4.43;;
15285;SDS011;7744;52.172;10.668;2023-08-20T14:08:54;6.50;;;3.35;;
15285;SDS011;7744;52.172;10.668;2023-08-20T14:11:19;3.00;;;2.70;;
15285;SDS011;7744;52.172;10.668;2023-08-20T14:13:45;3.03;;;2.70;;
15285;SDS011;7744;52.172;10.668;2023-08-20T14:16:10;19.17;;;4.22;;
15285;SDS011;7744;52.172;10.668;2023-08-20T14:18:36;3.30;;;2.55;;
15285;SDS011;7744;52.172;10.668;2023-08-20T14:21:02;3.83;;;3.42;;
15285;SDS011;7744;52.172;10.668;2023-08-20T14:23:28;4.10;;;2.72;;
15285;SDS011;7744;52.172;10.668;2023-08-20T14:25:54;3.40;;;3.10;;
15285;SDS011;7744;52.172;10.668;2023-08-20T14:28:20;4.07;;;2.85;;
15285;SDS011;7744;52.172;10.668;2023-08-20T14:30:46;3.28;;;2.97;;
15285;SDS011;7744;52.172;10.668;2023-08-20T14:33:12;5.70;;;3.08;;
15285;SDS011;7744;52.172;10.668;2023-08-20T14:35:37;6.32;;;3.28;;
15285;SDS011;7744;52.172;10.668;2023-08-20T14:38:03;4.00;;;3.30;;
15285;SDS011;7744;52.172;10.668;2023-08-20T14:40:28;2.90;;;2.70;;
15285;SDS011;7744;52.172;10.668;2023-08-20T14:42:55;3.38;;;2.95;;
15285;SDS011;7744;52.172;10.668;2023-08-20T14:45:21;4.82;;;3.28;;
15285;SDS011;7744;52.172;10.668;2023-08-20T14:47:46;3.35;;;3.05;;
15285;SDS011;7744;52.172;10.668;2023-08-20T14:50:12;3.85;;;2.92;;
15285;SDS011;7744;52.172;10.668;2023-08-20T14:52:38;3.47;;;2.70;;
15285;SDS011;7744;52.172;10.668;2023-08-20T14:55:03;3.20;;;2.90;;